sensor_id;sensor_type;location;lat;lon;timestamp;temperature;humidity
23089;DHT22;11713;48.506;8.966;2023-07-29T00:01:40;17.20;99.90
23089;DHT22;11713;48.506;8.966;2023-07-29T00:04:07;17.20;99.90
23089;DHT22;11713;48.506;8.966;2023-07-29T00:06:34;17.20;99.90
23089;DHT22;11713;48.506;8.966;2023-07-29T00:09:01;17.20;99.90
23089;DHT22;11713;48.506;8.966;2023-07-29T00:11:27;17.30;99.90
23089;DHT22;11713;48.506;8.966;2023-07-29T00:13:53;17.30;99.90
23089;DHT22;11713;48.506;8.966;2023-07-29T00:16:20;17.30;99.90
23089;DHT22;11713;48.506;8.966;2023-07-29T00:18:49;17.30;99.90
23089;DHT22;11713;48.506;8.966;2023-07-29T00:21:15;17.30;99.90
23089;DHT22;11713;48.506;8.966;2023-07-29T00:23:40;17.30;99.90
23089;DHT22;11713;48.506;8.966;2023-07-29T00:26:06;17.30;99.90
23089;DHT22;11713;48.506;8.966;2023-07-29T00:28:32;17.30;99.90
23089;DHT22;11713;48.506;8.966;2023-07-29T00:30:58;17.30;99.90
23089;DHT22;11713;48.506;8.966;2023-07-29T00:33:24;17.30;99.90
23089;DHT22;11713;48.506;8.966;2023-07-29T00:35:50;17.30;99.90
23089;DHT22;11713;48.506;8.966;2023-07-29T00:38:16;17.30;99.90
23089;DHT22;11713;48.506;8.966;2023-07-29T00:40:42;17.40;99.90
23089;DHT22;11713;48.506;8.966;2023-07-29T00:43:08;17.40;99.90
23089;DHT22;11713;48.506;8.966;2023-07-29T00:45:35;17.30;99.90
23089;DHT22;11713;48.506;8.966;2023-07-29T00:48:02;17.30;99.90
23089;DHT22;11713;48.506;8.966;2023-07-29T00:50:29;17.30;99.90
23089;DHT22;11713;48.506;8.966;2023-07-29T00:52:56;17.30;99.90
23089;DHT22;11713;48.506;8.966;2023-07-29T00:55:23;17.40;99.90
23089;DHT22;11713;48.506;8.966;2023-07-29T00:57:50;17.30;99.90
23089;DHT22;11713;48.506;8.966;2023-07-29T01:00:18;17.30;99.90
23089;DHT22;11713;48.506;8.966;2023-07-29T01:02:44;17.30;99.90
23089;DHT22;11713;48.506;8.966;2023-07-29T01:05:13;17.30;99.90
23089;DHT22;11713;48.506;8.966;2023-07-29T01:10:47;17.30;99.90
23089;DHT22;11713;48.506;8.966;2023-07-29T01:16:10;17.30;99.90
23089;DHT22;11713;48.506;8.966;2023-07-29T01:18:39;17.30;99.90
23089;DHT22;11713;48.506;8.966;2023-07-29T01:21:08;17.30;99.90
23089;DHT22;11713;48.506;8.966;2023-07-29T01:23:34;17.30;99.90
23089;DHT22;11713;48.506;8.966;2023-07-29T01:26:02;17.20;99.90
23089;DHT22;11713;48.506;8.966;2023-07-29T01:28:29;17.20;99.90
23089;DHT22;11713;48.506;8.966;2023-07-29T01:31:42;17.20;99.90
23089;DHT22;11713;48.506;8.966;2023-07-29T01:34:25;17.20;99.90
23089;DHT22;11713;48.506;8.966;2023-07-29T01:36:53;17.20;99.90
23089;DHT22;11713;48.506;8.966;2023-07-29T01:39:21;17.10;99.90
23089;DHT22;11713;48.506;8.966;2023-07-29T01:41:51;17.10;99.90
23089;DHT22;11713;48.506;8.966;2023-07-29T01:44:17;17.10;99.90
23089;DHT22;11713;48.506;8.966;2023-07-29T01:46:44;17.10;99.90
23089;DHT22;11713;48.506;8.966;2023-07-29T01:49:10;17.10;99.90
23089;DHT22;11713;48.506;8.966;2023-07-29T01:51:36;17.10;99.90
23089;DHT22;11713;48.506;8.966;2023-07-29T01:54:01;17.20;99.90
23089;DHT22;11713;48.506;8.966;2023-07-29T01:56:28;17.20;99.90
23089;DHT22;11713;48.506;8.966;2023-07-29T01:58:55;17.20;99.90
23089;DHT22;11713;48.506;8.966;2023-07-29T02:01:21;17.20;99.90
23089;DHT22;11713;48.506;8.966;2023-07-29T02:03:47;17.20;99.90
23089;DHT22;11713;48.506;8.966;2023-07-29T02:06:20;17.20;99.90
23089;DHT22;11713;48.506;8.966;2023-07-29T02:08:46;17.10;99.90
23089;DHT22;11713;48.506;8.966;2023-07-29T02:11:12;17.10;99.90
23089;DHT22;11713;48.506;8.966;2023-07-29T02:13:38;17.00;99.90
23089;DHT22;11713;48.506;8.966;2023-07-29T02:16:04;17.00;99.90
23089;DHT22;11713;48.506;8.966;2023-07-29T02:18:29;17.00;99.90
23089;DHT22;11713;48.506;8.966;2023-07-29T02:20:55;17.00;99.90
23089;DHT22;11713;48.506;8.966;2023-07-29T02:23:21;17.00;99.90
23089;DHT22;11713;48.506;8.966;2023-07-29T02:25:47;17.00;99.90
23089;DHT22;11713;48.506;8.966;2023-07-29T02:28:13;17.00;99.90
23089;DHT22;11713;48.506;8.966;2023-07-29T02:30:41;17.00;99.90
23089;DHT22;11713;48.506;8.966;2023-07-29T02:33:10;17.00;99.90
23089;DHT22;11713;48.506;8.966;2023-07-29T02:35:36;16.90;99.90
23089;DHT22;11713;48.506;8.966;2023-07-29T02:38:02;16.90;99.90
23089;DHT22;11713;48.506;8.966;2023-07-29T02:40:28;16.90;99.90
23089;DHT22;11713;48.506;8.966;2023-07-29T02:42:55;16.90;99.90
23089;DHT22;11713;48.506;8.966;2023-07-29T02:45:20;16.90;99.90
23089;DHT22;11713;48.506;8.966;2023-07-29T02:47:46;16.90;99.90
23089;DHT22;11713;48.506;8.966;2023-07-29T02:50:12;16.80;99.90
23089;DHT22;11713;48.506;8.966;2023-07-29T02:52:38;16.80;99.90
23089;DHT22;11713;48.506;8.966;2023-07-29T02:55:04;16.90;99.90
23089;DHT22;11713;48.506;8.966;2023-07-29T02:57:30;16.90;99.90
23089;DHT22;11713;48.506;8.966;2023-07-29T02:59:56;16.90;99.90
23089;DHT22;11713;48.506;8.966;2023-07-29T03:02:22;16.90;99.90
23089;DHT22;11713;48.506;8.966;2023-07-29T03:04:48;17.00;99.90
23089;DHT22;11713;48.506;8.966;2023-07-29T03:07:14;17.00;99.90
23089;DHT22;11713;48.506;8.966;2023-07-29T03:09:40;17.00;99.90
23089;DHT22;11713;48.506;8.966;2023-07-29T03:12:08;17.00;99.90
23089;DHT22;11713;48.506;8.966;2023-07-29T03:14:34;17.00;99.90
23089;DHT22;11713;48.506;8.966;2023-07-29T03:17:03;17.00;99.90
23089;DHT22;11713;48.506;8.966;2023-07-29T03:19:32;17.00;99.90
23089;DHT22;11713;48.506;8.966;2023-07-29T03:21:58;16.90;99.90
23089;DHT22;11713;48.506;8.966;2023-07-29T03:24:24;16.90;99.90
23089;DHT22;11713;48.506;8.966;2023-07-29T03:26:49;16.90;99.90
23089;DHT22;11713;48.506;8.966;2023-07-29T03:29:15;16.90;99.90
23089;DHT22;11713;48.506;8.966;2023-07-29T03:31:41;16.90;99.90
23089;DHT22;11713;48.506;8.966;2023-07-29T03:34:07;16.90;99.90
23089;DHT22;11713;48.506;8.966;2023-07-29T03:36:34;16.90;99.90
23089;DHT22;11713;48.506;8.966;2023-07-29T03:39:00;16.90;99.90
23089;DHT22;11713;48.506;8.966;2023-07-29T03:41:28;16.90;99.90
23089;DHT22;11713;48.506;8.966;2023-07-29T03:43:54;16.90;99.90
23089;DHT22;11713;48.506;8.966;2023-07-29T03:46:20;16.80;99.90
23089;DHT22;11713;48.506;8.966;2023-07-29T03:48:48;16.90;99.90
23089;DHT22;11713;48.506;8.966;2023-07-29T03:51:13;16.90;99.90
23089;DHT22;11713;48.506;8.966;2023-07-29T03:53:39;16.90;99.90
23089;DHT22;11713;48.506;8.966;2023-07-29T03:56:05;16.90;99.90
23089;DHT22;11713;48.506;8.966;2023-07-29T03:58:31;16.80;99.90
23089;DHT22;11713;48.506;8.966;2023-07-29T04:00:57;16.80;99.90
23089;DHT22;11713;48.506;8.966;2023-07-29T04:03:23;16.80;99.90
23089;DHT22;11713;48.506;8.966;2023-07-29T04:05:51;16.80;99.90
23089;DHT22;11713;48.506;8.966;2023-07-29T04:08:18;16.80;99.90
23089;DHT22;11713;48.506;8.966;2023-07-29T04:10:44;16.80;99.90
23089;DHT22;11713;48.506;8.966;2023-07-29T04:13:10;16.80;99.90
23089;DHT22;11713;48.506;8.966;2023-07-29T04:15:37;16.80;99.90
23089;DHT22;11713;48.506;8.966;2023-07-29T04:18:03;16.80;99.90
23089;DHT22;11713;48.506;8.966;2023-07-29T04:20:29;16.80;99.90
23089;DHT22;11713;48.506;8.966;2023-07-29T04:22:54;16.80;99.90
23089;DHT22;11713;48.506;8.966;2023-07-29T04:25:20;16.80;99.90
23089;DHT22;11713;48.506;8.966;2023-07-29T04:27:46;16.80;99.90
23089;DHT22;11713;48.506;8.966;2023-07-29T04:30:12;16.80;99.90
23089;DHT22;11713;48.506;8.966;2023-07-29T04:32:38;16.80;99.90
23089;DHT22;11713;48.506;8.966;2023-07-29T04:35:07;16.80;99.90
23089;DHT22;11713;48.506;8.966;2023-07-29T04:37:36;16.80;99.90
23089;DHT22;11713;48.506;8.966;2023-07-29T04:40:02;16.90;99.90
23089;DHT22;11713;48.506;8.966;2023-07-29T04:42:28;16.90;99.90
23089;DHT22;11713;48.506;8.966;2023-07-29T04:44:53;16.80;99.90
23089;DHT22;11713;48.506;8.966;2023-07-29T04:47:19;16.80;99.90
23089;DHT22;11713;48.506;8.966;2023-07-29T04:49:45;16.80;99.90
23089;DHT22;11713;48.506;8.966;2023-07-29T04:52:11;16.80;99.90
23089;DHT22;11713;48.506;8.966;2023-07-29T04:54:38;16.80;99.90
23089;DHT22;11713;48.506;8.966;2023-07-29T04:57:04;16.80;99.90
23089;DHT22;11713;48.506;8.966;2023-07-29T04:59:29;16.90;99.90
23089;DHT22;11713;48.506;8.966;2023-07-29T05:01:55;16.90;99.90
23089;DHT22;11713;48.506;8.966;2023-07-29T05:04:21;17.00;99.90
23089;DHT22;11713;48.506;8.966;2023-07-29T05:06:47;17.00;99.90
23089;DHT22;11713;48.506;8.966;2023-07-29T05:09:18;17.10;99.90
23089;DHT22;11713;48.506;8.966;2023-07-29T05:11:45;17.20;99.90
23089;DHT22;11713;48.506;8.966;2023-07-29T05:14:17;17.20;99.90
23089;DHT22;11713;48.506;8.966;2023-07-29T05:16:43;17.30;99.90
23089;DHT22;11713;48.506;8.966;2023-07-29T05:19:10;17.30;99.90
23089;DHT22;11713;48.506;8.966;2023-07-29T05:21:37;17.40;99.90
23089;DHT22;11713;48.506;8.966;2023-07-29T05:24:03;17.40;99.90
23089;DHT22;11713;48.506;8.966;2023-07-29T05:26:29;17.40;99.90
23089;DHT22;11713;48.506;8.966;2023-07-29T05:28:55;17.50;99.90
23089;DHT22;11713;48.506;8.966;2023-07-29T05:31:22;17.50;99.90
23089;DHT22;11713;48.506;8.966;2023-07-29T05:33:48;17.40;99.90
23089;DHT22;11713;48.506;8.966;2023-07-29T05:36:14;17.50;99.90
23089;DHT22;11713;48.506;8.966;2023-07-29T05:38:41;17.50;99.90
23089;DHT22;11713;48.506;8.966;2023-07-29T05:41:08;17.50;99.90
23089;DHT22;11713;48.506;8.966;2023-07-29T05:43:33;17.50;99.90
23089;DHT22;11713;48.506;8.966;2023-07-29T05:45:59;17.60;99.90
23089;DHT22;11713;48.506;8.966;2023-07-29T05:48:25;17.70;99.90
23089;DHT22;11713;48.506;8.966;2023-07-29T05:50:51;17.70;99.90
23089;DHT22;11713;48.506;8.966;2023-07-29T05:53:18;17.70;99.90
23089;DHT22;11713;48.506;8.966;2023-07-29T05:55:49;17.80;99.90
23089;DHT22;11713;48.506;8.966;2023-07-29T05:58:16;17.80;99.90
23089;DHT22;11713;48.506;8.966;2023-07-29T06:00:42;17.90;99.90
23089;DHT22;11713;48.506;8.966;2023-07-29T06:03:07;17.90;99.90
23089;DHT22;11713;48.506;8.966;2023-07-29T06:05:33;18.00;99.90
23089;DHT22;11713;48.506;8.966;2023-07-29T06:07:59;18.00;99.90
23089;DHT22;11713;48.506;8.966;2023-07-29T06:10:25;18.00;99.90
23089;DHT22;11713;48.506;8.966;2023-07-29T06:12:51;18.10;99.90
23089;DHT22;11713;48.506;8.966;2023-07-29T06:15:17;18.10;99.90
23089;DHT22;11713;48.506;8.966;2023-07-29T06:17:43;18.20;99.90
23089;DHT22;11713;48.506;8.966;2023-07-29T06:20:09;18.20;99.90
23089;DHT22;11713;48.506;8.966;2023-07-29T06:22:35;18.20;99.90
23089;DHT22;11713;48.506;8.966;2023-07-29T06:25:01;18.30;99.90
23089;DHT22;11713;48.506;8.966;2023-07-29T06:27:27;18.20;99.90
23089;DHT22;11713;48.506;8.966;2023-07-29T06:29:52;18.30;99.90
23089;DHT22;11713;48.506;8.966;2023-07-29T06:32:18;18.30;99.90
23089;DHT22;11713;48.506;8.966;2023-07-29T06:34:44;18.30;99.90
23089;DHT22;11713;48.506;8.966;2023-07-29T06:37:10;18.40;99.90
23089;DHT22;11713;48.506;8.966;2023-07-29T06:39:35;18.40;99.90
23089;DHT22;11713;48.506;8.966;2023-07-29T06:42:01;18.40;99.90
23089;DHT22;11713;48.506;8.966;2023-07-29T06:44:27;18.40;99.90
23089;DHT22;11713;48.506;8.966;2023-07-29T06:46:53;18.40;99.90
23089;DHT22;11713;48.506;8.966;2023-07-29T06:49:19;18.30;99.90
23089;DHT22;11713;48.506;8.966;2023-07-29T06:51:45;18.20;99.90
23089;DHT22;11713;48.506;8.966;2023-07-29T06:54:12;18.20;99.90
23089;DHT22;11713;48.506;8.966;2023-07-29T06:56:40;18.20;99.90
23089;DHT22;11713;48.506;8.966;2023-07-29T06:59:09;18.10;99.90
23089;DHT22;11713;48.506;8.966;2023-07-29T07:01:35;18.10;99.90
23089;DHT22;11713;48.506;8.966;2023-07-29T07:04:01;18.10;99.90
23089;DHT22;11713;48.506;8.966;2023-07-29T07:06:27;18.10;99.90
23089;DHT22;11713;48.506;8.966;2023-07-29T07:08:53;18.10;99.90
23089;DHT22;11713;48.506;8.966;2023-07-29T07:11:19;18.10;99.90
23089;DHT22;11713;48.506;8.966;2023-07-29T07:13:45;18.20;99.90
23089;DHT22;11713;48.506;8.966;2023-07-29T07:16:10;18.20;99.90
23089;DHT22;11713;48.506;8.966;2023-07-29T07:18:36;18.20;99.90
23089;DHT22;11713;48.506;8.966;2023-07-29T07:21:02;18.30;99.90
23089;DHT22;11713;48.506;8.966;2023-07-29T07:23:28;18.30;99.90
23089;DHT22;11713;48.506;8.966;2023-07-29T07:25:54;18.40;99.90
23089;DHT22;11713;48.506;8.966;2023-07-29T07:28:20;18.50;99.90
23089;DHT22;11713;48.506;8.966;2023-07-29T07:30:46;18.50;99.90
23089;DHT22;11713;48.506;8.966;2023-07-29T07:33:11;18.60;99.90
23089;DHT22;11713;48.506;8.966;2023-07-29T07:35:37;18.70;99.90
23089;DHT22;11713;48.506;8.966;2023-07-29T07:38:03;18.80;99.90
23089;DHT22;11713;48.506;8.966;2023-07-29T07:40:33;18.90;99.90
23089;DHT22;11713;48.506;8.966;2023-07-29T07:42:59;19.00;99.90
23089;DHT22;11713;48.506;8.966;2023-07-29T07:45:24;19.00;99.90
23089;DHT22;11713;48.506;8.966;2023-07-29T07:47:52;19.00;99.90
23089;DHT22;11713;48.506;8.966;2023-07-29T07:50:19;19.00;99.90
23089;DHT22;11713;48.506;8.966;2023-07-29T07:52:45;19.00;99.90
23089;DHT22;11713;48.506;8.966;2023-07-29T07:55:10;19.10;99.90
23089;DHT22;11713;48.506;8.966;2023-07-29T07:57:36;19.10;99.90
23089;DHT22;11713;48.506;8.966;2023-07-29T08:00:03;19.20;99.90
23089;DHT22;11713;48.506;8.966;2023-07-29T08:02:38;19.30;99.90
23089;DHT22;11713;48.506;8.966;2023-07-29T08:05:05;19.30;99.90
23089;DHT22;11713;48.506;8.966;2023-07-29T08:07:34;19.40;99.90
23089;DHT22;11713;48.506;8.966;2023-07-29T08:10:00;19.40;99.90
23089;DHT22;11713;48.506;8.966;2023-07-29T08:12:26;19.40;99.90
23089;DHT22;11713;48.506;8.966;2023-07-29T08:14:52;19.40;99.90
23089;DHT22;11713;48.506;8.966;2023-07-29T08:17:18;19.40;99.90
23089;DHT22;11713;48.506;8.966;2023-07-29T08:19:44;19.40;99.90
23089;DHT22;11713;48.506;8.966;2023-07-29T08:22:10;19.40;99.90
23089;DHT22;11713;48.506;8.966;2023-07-29T08:24:36;19.50;99.90
23089;DHT22;11713;48.506;8.966;2023-07-29T08:27:02;19.60;99.90
23089;DHT22;11713;48.506;8.966;2023-07-29T08:29:28;19.60;99.90
23089;DHT22;11713;48.506;8.966;2023-07-29T08:31:54;19.70;99.90
23089;DHT22;11713;48.506;8.966;2023-07-29T08:34:21;19.70;99.90
23089;DHT22;11713;48.506;8.966;2023-07-29T08:36:47;19.80;99.90
23089;DHT22;11713;48.506;8.966;2023-07-29T08:39:12;19.80;99.90
23089;DHT22;11713;48.506;8.966;2023-07-29T08:42:02;19.90;99.90
23089;DHT22;11713;48.506;8.966;2023-07-29T08:44:39;20.00;99.90
23089;DHT22;11713;48.506;8.966;2023-07-29T08:47:05;20.20;99.90
23089;DHT22;11713;48.506;8.966;2023-07-29T08:49:32;20.40;99.90
23089;DHT22;11713;48.506;8.966;2023-07-29T08:51:58;20.50;99.90
23089;DHT22;11713;48.506;8.966;2023-07-29T08:54:25;20.70;99.90
23089;DHT22;11713;48.506;8.966;2023-07-29T08:56:51;20.90;99.90
23089;DHT22;11713;48.506;8.966;2023-07-29T08:59:17;21.20;99.90
23089;DHT22;11713;48.506;8.966;2023-07-29T09:01:43;21.40;99.90
23089;DHT22;11713;48.506;8.966;2023-07-29T09:04:09;21.60;99.90
23089;DHT22;11713;48.506;8.966;2023-07-29T09:06:36;21.60;99.90
23089;DHT22;11713;48.506;8.966;2023-07-29T09:09:04;21.80;99.90
23089;DHT22;11713;48.506;8.966;2023-07-29T09:11:31;21.90;99.90
23089;DHT22;11713;48.506;8.966;2023-07-29T09:13:58;22.10;99.90
23089;DHT22;11713;48.506;8.966;2023-07-29T09:16:24;22.30;99.90
23089;DHT22;11713;48.506;8.966;2023-07-29T09:18:51;22.40;99.90
23089;DHT22;11713;48.506;8.966;2023-07-29T09:21:22;22.50;99.90
23089;DHT22;11713;48.506;8.966;2023-07-29T09:23:50;22.60;99.90
23089;DHT22;11713;48.506;8.966;2023-07-29T09:26:25;22.60;99.90
23089;DHT22;11713;48.506;8.966;2023-07-29T09:28:56;22.70;99.90
23089;DHT22;11713;48.506;8.966;2023-07-29T09:31:24;22.80;99.90
23089;DHT22;11713;48.506;8.966;2023-07-29T09:33:56;23.00;99.90
23089;DHT22;11713;48.506;8.966;2023-07-29T09:36:23;23.10;99.90
23089;DHT22;11713;48.506;8.966;2023-07-29T09:38:54;23.30;99.90
23089;DHT22;11713;48.506;8.966;2023-07-29T09:41:25;23.60;99.90
23089;DHT22;11713;48.506;8.966;2023-07-29T09:43:59;23.60;99.90
23089;DHT22;11713;48.506;8.966;2023-07-29T09:46:25;23.70;99.90
23089;DHT22;11713;48.506;8.966;2023-07-29T09:48:57;23.80;99.90
23089;DHT22;11713;48.506;8.966;2023-07-29T09:51:23;23.80;99.90
23089;DHT22;11713;48.506;8.966;2023-07-29T09:53:50;23.80;99.90
23089;DHT22;11713;48.506;8.966;2023-07-29T09:56:17;23.70;99.90
23089;DHT22;11713;48.506;8.966;2023-07-29T09:58:44;23.90;99.90
23089;DHT22;11713;48.506;8.966;2023-07-29T10:01:11;24.00;99.90
23089;DHT22;11713;48.506;8.966;2023-07-29T10:03:37;24.10;99.90
23089;DHT22;11713;48.506;8.966;2023-07-29T10:06:04;24.10;99.90
23089;DHT22;11713;48.506;8.966;2023-07-29T10:08:31;24.20;99.90
23089;DHT22;11713;48.506;8.966;2023-07-29T10:11:07;24.20;99.90
23089;DHT22;11713;48.506;8.966;2023-07-29T10:13:34;24.30;99.90
23089;DHT22;11713;48.506;8.966;2023-07-29T10:16:00;24.40;99.90
23089;DHT22;11713;48.506;8.966;2023-07-29T10:18:30;24.50;99.90
23089;DHT22;11713;48.506;8.966;2023-07-29T10:20:58;24.30;99.90
23089;DHT22;11713;48.506;8.966;2023-07-29T10:23:28;24.40;99.90
23089;DHT22;11713;48.506;8.966;2023-07-29T10:26:03;24.40;99.90
23089;DHT22;11713;48.506;8.966;2023-07-29T10:28:31;24.50;99.90
23089;DHT22;11713;48.506;8.966;2023-07-29T10:30:59;24.40;99.90
23089;DHT22;11713;48.506;8.966;2023-07-29T10:33:26;24.30;99.90
23089;DHT22;11713;48.506;8.966;2023-07-29T10:35:53;24.60;99.90
23089;DHT22;11713;48.506;8.966;2023-07-29T10:38:23;25.10;99.90
23089;DHT22;11713;48.506;8.966;2023-07-29T10:40:51;25.20;99.90
23089;DHT22;11713;48.506;8.966;2023-07-29T10:43:24;25.10;99.90
23089;DHT22;11713;48.506;8.966;2023-07-29T10:45:50;25.10;99.90
23089;DHT22;11713;48.506;8.966;2023-07-29T10:54:11;24.70;99.90
23089;DHT22;11713;48.506;8.966;2023-07-29T10:56:42;24.70;99.90
23089;DHT22;11713;48.506;8.966;2023-07-29T11:01:39;25.20;99.90
23089;DHT22;11713;48.506;8.966;2023-07-29T11:12:36;25.10;99.90
23089;DHT22;11713;48.506;8.966;2023-07-29T11:15:24;25.30;99.90
23089;DHT22;11713;48.506;8.966;2023-07-29T11:17:52;25.30;99.90
23089;DHT22;11713;48.506;8.966;2023-07-29T11:20:20;25.40;99.90
23089;DHT22;11713;48.506;8.966;2023-07-29T11:22:47;25.30;99.90
23089;DHT22;11713;48.506;8.966;2023-07-29T11:25:15;25.10;99.90
23089;DHT22;11713;48.506;8.966;2023-07-29T11:27:41;24.90;99.90
23089;DHT22;11713;48.506;8.966;2023-07-29T11:30:11;24.80;99.90
23089;DHT22;11713;48.506;8.966;2023-07-29T11:32:39;24.60;99.90
23089;DHT22;11713;48.506;8.966;2023-07-29T11:35:10;24.70;99.90
23089;DHT22;11713;48.506;8.966;2023-07-29T11:37:37;24.70;99.90
23089;DHT22;11713;48.506;8.966;2023-07-29T11:40:04;24.80;99.90
23089;DHT22;11713;48.506;8.966;2023-07-29T11:42:34;24.90;99.90
23089;DHT22;11713;48.506;8.966;2023-07-29T11:45:04;25.10;99.90
23089;DHT22;11713;48.506;8.966;2023-07-29T11:47:32;25.10;99.90
23089;DHT22;11713;48.506;8.966;2023-07-29T11:50:04;25.20;99.90
23089;DHT22;11713;48.506;8.966;2023-07-29T11:52:32;25.10;99.90
23089;DHT22;11713;48.506;8.966;2023-07-29T11:55:00;24.90;99.90
23089;DHT22;11713;48.506;8.966;2023-07-29T11:57:26;25.00;99.90
23089;DHT22;11713;48.506;8.966;2023-07-29T11:59:52;25.10;99.90
23089;DHT22;11713;48.506;8.966;2023-07-29T12:02:20;25.10;99.90
23089;DHT22;11713;48.506;8.966;2023-07-29T12:04:47;25.00;99.90
23089;DHT22;11713;48.506;8.966;2023-07-29T12:07:14;25.10;99.90
23089;DHT22;11713;48.506;8.966;2023-07-29T12:09:45;25.10;99.90
23089;DHT22;11713;48.506;8.966;2023-07-29T12:12:12;25.10;99.90
23089;DHT22;11713;48.506;8.966;2023-07-29T12:14:39;25.30;99.90
23089;DHT22;11713;48.506;8.966;2023-07-29T12:17:09;25.50;99.90
23089;DHT22;11713;48.506;8.966;2023-07-29T12:19:36;25.50;99.90
23089;DHT22;11713;48.506;8.966;2023-07-29T12:22:04;25.40;99.90
23089;DHT22;11713;48.506;8.966;2023-07-29T12:24:31;25.30;99.90
23089;DHT22;11713;48.506;8.966;2023-07-29T12:26:58;25.40;99.90
23089;DHT22;11713;48.506;8.966;2023-07-29T12:29:24;25.40;99.90
23089;DHT22;11713;48.506;8.966;2023-07-29T12:31:57;25.50;99.90
23089;DHT22;11713;48.506;8.966;2023-07-29T12:34:26;25.40;99.90
23089;DHT22;11713;48.506;8.966;2023-07-29T12:36:53;25.40;99.90
23089;DHT22;11713;48.506;8.966;2023-07-29T12:41:50;25.40;99.90
23089;DHT22;11713;48.506;8.966;2023-07-29T12:44:17;25.30;99.90
23089;DHT22;11713;48.506;8.966;2023-07-29T12:46:43;25.40;99.90
23089;DHT22;11713;48.506;8.966;2023-07-29T12:49:10;25.40;99.90
23089;DHT22;11713;48.506;8.966;2023-07-29T12:51:36;25.40;99.90
23089;DHT22;11713;48.506;8.966;2023-07-29T12:54:05;25.40;99.90
23089;DHT22;11713;48.506;8.966;2023-07-29T12:56:32;25.30;99.90
23089;DHT22;11713;48.506;8.966;2023-07-29T12:58:58;25.30;99.90
23089;DHT22;11713;48.506;8.966;2023-07-29T13:01:25;25.40;99.90
23089;DHT22;11713;48.506;8.966;2023-07-29T13:03:52;25.40;99.90
23089;DHT22;11713;48.506;8.966;2023-07-29T13:06:17;25.50;99.90
23089;DHT22;11713;48.506;8.966;2023-07-29T13:08:44;25.70;99.90
23089;DHT22;11713;48.506;8.966;2023-07-29T13:11:10;25.70;99.90
23089;DHT22;11713;48.506;8.966;2023-07-29T13:13:36;25.70;99.90
23089;DHT22;11713;48.506;8.966;2023-07-29T13:16:03;25.70;99.90
23089;DHT22;11713;48.506;8.966;2023-07-29T13:18:29;25.70;99.90
23089;DHT22;11713;48.506;8.966;2023-07-29T13:20:55;25.70;99.90
23089;DHT22;11713;48.506;8.966;2023-07-29T13:23:21;25.90;99.90
23089;DHT22;11713;48.506;8.966;2023-07-29T13:25:47;25.80;99.90
23089;DHT22;11713;48.506;8.966;2023-07-29T13:28:13;25.70;99.90
23089;DHT22;11713;48.506;8.966;2023-07-29T13:30:40;25.70;99.90
23089;DHT22;11713;48.506;8.966;2023-07-29T13:33:09;25.70;99.90
23089;DHT22;11713;48.506;8.966;2023-07-29T13:35:35;25.70;99.90
23089;DHT22;11713;48.506;8.966;2023-07-29T13:38:01;25.60;99.90
23089;DHT22;11713;48.506;8.966;2023-07-29T13:40:27;25.50;99.90
23089;DHT22;11713;48.506;8.966;2023-07-29T13:42:54;25.50;99.90
23089;DHT22;11713;48.506;8.966;2023-07-29T13:45:21;25.40;99.90
23089;DHT22;11713;48.506;8.966;2023-07-29T13:47:47;25.20;99.90
23089;DHT22;11713;48.506;8.966;2023-07-29T13:50:13;25.20;99.90
23089;DHT22;11713;48.506;8.966;2023-07-29T13:52:39;25.10;99.90
23089;DHT22;11713;48.506;8.966;2023-07-29T13:55:06;25.10;99.90
23089;DHT22;11713;48.506;8.966;2023-07-29T13:57:33;25.10;99.90
23089;DHT22;11713;48.506;8.966;2023-07-29T13:59:59;25.10;99.90
23089;DHT22;11713;48.506;8.966;2023-07-29T14:02:26;25.10;99.90
23089;DHT22;11713;48.506;8.966;2023-07-29T14:04:55;25.10;99.90
23089;DHT22;11713;48.506;8.966;2023-07-29T14:07:21;25.10;99.90
23089;DHT22;11713;48.506;8.966;2023-07-29T14:09:50;25.10;99.90
23089;DHT22;11713;48.506;8.966;2023-07-29T14:12:18;25.00;99.90
23089;DHT22;11713;48.506;8.966;2023-07-29T14:14:44;24.90;99.90
23089;DHT22;11713;48.506;8.966;2023-07-29T14:17:10;25.00;99.90
23089;DHT22;11713;48.506;8.966;2023-07-29T14:19:36;25.10;99.90
23089;DHT22;11713;48.506;8.966;2023-07-29T14:22:03;25.10;99.90
23089;DHT22;11713;48.506;8.966;2023-07-29T14:24:29;25.20;99.90
23089;DHT22;11713;48.506;8.966;2023-07-29T14:26:55;25.20;99.90
23089;DHT22;11713;48.506;8.966;2023-07-29T14:29:21;25.20;99.90
23089;DHT22;11713;48.506;8.966;2023-07-29T14:31:56;25.10;99.90
23089;DHT22;11713;48.506;8.966;2023-07-29T14:34:24;25.10;99.90
23089;DHT22;11713;48.506;8.966;2023-07-29T14:36:50;25.10;99.90
23089;DHT22;11713;48.506;8.966;2023-07-29T14:39:16;25.20;99.90
23089;DHT22;11713;48.506;8.966;2023-07-29T14:41:43;25.20;99.90
23089;DHT22;11713;48.506;8.966;2023-07-29T14:44:08;25.30;99.90
23089;DHT22;11713;48.506;8.966;2023-07-29T14:46:34;25.30;99.90
23089;DHT22;11713;48.506;8.966;2023-07-29T14:49:00;25.30;99.90
23089;DHT22;11713;48.506;8.966;2023-07-29T14:51:26;25.30;99.90
23089;DHT22;11713;48.506;8.966;2023-07-29T14:53:52;25.10;99.90
23089;DHT22;11713;48.506;8.966;2023-07-29T14:56:18;25.10;99.90
23089;DHT22;11713;48.506;8.966;2023-07-29T14:58:45;25.10;99.90
23089;DHT22;11713;48.506;8.966;2023-07-29T15:01:12;25.10;99.90
23089;DHT22;11713;48.506;8.966;2023-07-29T15:03:38;25.10;99.90
23089;DHT22;11713;48.506;8.966;2023-07-29T15:06:04;25.10;99.90
23089;DHT22;11713;48.506;8.966;2023-07-29T15:08:31;25.20;99.90
23089;DHT22;11713;48.506;8.966;2023-07-29T15:10:57;25.20;99.90
23089;DHT22;11713;48.506;8.966;2023-07-29T15:13:28;25.30;99.90
23089;DHT22;11713;48.506;8.966;2023-07-29T15:15:55;25.20;99.90
23089;DHT22;11713;48.506;8.966;2023-07-29T15:18:21;25.20;99.90
23089;DHT22;11713;48.506;8.966;2023-07-29T15:20:49;25.20;99.90
23089;DHT22;11713;48.506;8.966;2023-07-29T15:23:15;25.10;99.90
23089;DHT22;11713;48.506;8.966;2023-07-29T15:25:42;25.10;99.90
23089;DHT22;11713;48.506;8.966;2023-07-29T15:28:08;25.10;99.90
23089;DHT22;11713;48.506;8.966;2023-07-29T15:30:39;25.10;99.90
23089;DHT22;11713;48.506;8.966;2023-07-29T15:33:07;25.10;99.90
23089;DHT22;11713;48.506;8.966;2023-07-29T15:35:38;25.20;99.90
23089;DHT22;11713;48.506;8.966;2023-07-29T15:38:07;25.20;99.90
23089;DHT22;11713;48.506;8.966;2023-07-29T15:40:33;25.20;99.90
23089;DHT22;11713;48.506;8.966;2023-07-29T15:42:59;25.10;99.90
23089;DHT22;11713;48.506;8.966;2023-07-29T15:45:25;25.20;99.90
23089;DHT22;11713;48.506;8.966;2023-07-29T15:47:50;25.20;99.90
23089;DHT22;11713;48.506;8.966;2023-07-29T15:50:16;25.20;99.90
23089;DHT22;11713;48.506;8.966;2023-07-29T15:52:42;25.30;99.90
23089;DHT22;11713;48.506;8.966;2023-07-29T15:55:09;25.20;99.90